createdAt,value
2022-08-31T00:00:46.322Z,100359.19
2022-08-31T00:03:33.754Z,100361.09
2022-08-31T00:06:04.274Z,100361.31
2022-08-31T00:08:34.173Z,100362.22
2022-08-31T00:11:03.158Z,100357.03
2022-08-31T00:13:32.383Z,100355.44
2022-08-31T00:16:01.509Z,100359.03
2022-08-31T00:18:31.617Z,100362.03
2022-08-31T00:21:00.811Z,100357.97
2022-08-31T00:23:29.589Z,100362.91
2022-08-31T00:25:59.338Z,100362.47
2022-08-31T00:28:28.547Z,100363.75
2022-08-31T00:30:57.185Z,100364.13
2022-08-31T00:33:25.797Z,100367.91
2022-08-31T00:35:56.138Z,100362.94
2022-08-31T00:38:25.054Z,100366.91
2022-08-31T00:40:54.104Z,100365.63
2022-08-31T00:43:40.882Z,100364.13
2022-08-31T00:46:13.086Z,100367.78
2022-08-31T00:48:45.814Z,100369.69
2022-08-31T00:51:18.903Z,100372.63
2022-08-31T00:53:50.709Z,100362.34
2022-08-31T00:56:20.009Z,100365.25
2022-08-31T00:58:54.481Z,100365.44
2022-08-31T01:01:24.473Z,100361.41
2022-08-31T01:03:53.223Z,100361.78
2022-08-31T01:06:24.489Z,100353.19
2022-08-31T01:08:55.501Z,100354.31
2022-08-31T01:11:24.485Z,100359.06
2022-08-31T01:13:53.736Z,100362.00
2022-08-31T01:16:27.933Z,100363.16
2022-08-31T01:19:00.335Z,100357.28
2022-08-31T01:21:36.380Z,100361.72
2022-08-31T01:24:07.503Z,100357.38
2022-08-31T01:26:38.995Z,100365.50
2022-08-31T01:29:09.332Z,100366.75
2022-08-31T01:31:42.060Z,100367.97
2022-08-31T01:34:11.838Z,100362.94
2022-08-31T01:36:43.967Z,100360.59
2022-08-31T01:39:14.557Z,100360.09
2022-08-31T01:41:44.312Z,100359.38
2022-08-31T01:44:15.998Z,100360.50
2022-08-31T01:46:46.804Z,100352.56
2022-08-31T01:49:17.767Z,100353.47
2022-08-31T01:51:48.020Z,100352.66
2022-08-31T01:54:19.821Z,100351.13
2022-08-31T01:56:50.294Z,100357.28
2022-08-31T01:59:28.741Z,100355.56
2022-08-31T02:02:07.154Z,100359.16
2022-08-31T02:04:39.345Z,100357.44
2022-08-31T02:07:09.841Z,100361.69
2022-08-31T02:09:40.896Z,100362.34
2022-08-31T02:12:09.538Z,100358.75
2022-08-31T02:14:41.567Z,100359.53
2022-08-31T02:17:10.844Z,100361.22
2022-08-31T02:19:39.779Z,100368.13
2022-08-31T02:22:09.277Z,100360.97
2022-08-31T02:24:37.975Z,100368.78
2022-08-31T02:27:08.904Z,100364.34
2022-08-31T02:29:39.026Z,100364.34
2022-08-31T02:32:08.005Z,100360.09
2022-08-31T02:34:48.587Z,100358.41
2022-08-31T02:37:21.072Z,100363.72
2022-08-31T02:39:50.253Z,100358.41
2022-08-31T02:42:22.618Z,100365.41
2022-08-31T02:44:52.066Z,100362.75
2022-08-31T02:47:21.095Z,100363.63
2022-08-31T02:49:58.591Z,100366.06
2022-08-31T02:52:27.578Z,100361.63
2022-08-31T02:54:56.143Z,100365.97
2022-08-31T02:57:26.588Z,100360.41
2022-08-31T02:59:55.634Z,100362.94
2022-08-31T03:02:24.288Z,100369.09
2022-08-31T03:05:04.055Z,100362.94
2022-08-31T03:07:33.898Z,100364.84
2022-08-31T03:10:02.761Z,100365.78
2022-08-31T03:12:33.588Z,100365.09
2022-08-31T03:15:02.217Z,100363.63
2022-08-31T03:17:31.658Z,100362.19
2022-08-31T03:20:03.975Z,100362.56
2022-08-31T03:22:33.778Z,100365.59
2022-08-31T03:25:02.436Z,100375.91
2022-08-31T03:27:33.049Z,100373.88
2022-08-31T03:30:02.381Z,100383.97
2022-08-31T03:32:33.889Z,100387.91
2022-08-31T03:35:04.158Z,100383.91
2022-08-31T03:37:33.840Z,100383.34
2022-08-31T03:40:05.071Z,100397.66
2022-08-31T03:42:36.635Z,100390.09
2022-08-31T03:45:08.077Z,100389.41
2022-08-31T03:47:44.488Z,100392.22
2022-08-31T03:50:16.124Z,100395.69
2022-08-31T03:53:04.367Z,100401.09
2022-08-31T03:55:34.314Z,100411.66
2022-08-31T03:58:06.335Z,100404.66
2022-08-31T04:00:37.005Z,100409.00
2022-08-31T04:03:14.309Z,100408.91
2022-08-31T04:06:22.576Z,100410.03
2022-08-31T04:09:10.119Z,100411.75
2022-08-31T04:11:57.765Z,100412.50
2022-08-31T04:14:46.961Z,100409.59
2022-08-31T04:17:36.364Z,100409.38
2022-08-31T04:20:30.068Z,100401.28
2022-08-31T04:22:59.130Z,100407.69
2022-08-31T04:25:39.338Z,100409.38
2022-08-31T04:28:09.328Z,100401.53
2022-08-31T04:30:42.532Z,100407.59
2022-08-31T04:33:13.281Z,100415.63
2022-08-31T04:35:43.646Z,100411.50
2022-08-31T04:38:12.829Z,100411.91
2022-08-31T04:40:44.480Z,100410.47
2022-08-31T04:43:15.290Z,100419.09
2022-08-31T04:45:47.558Z,100421.19
2022-08-31T04:48:18.175Z,100424.44
2022-08-31T04:50:51.048Z,100423.19
2022-08-31T04:53:19.994Z,100422.00
2022-08-31T04:55:53.060Z,100421.41
2022-08-31T04:58:23.921Z,100431.69
2022-08-31T05:00:55.132Z,100429.59
2022-08-31T05:03:53.329Z,100422.22
2022-08-31T05:06:24.133Z,100421.59
2022-08-31T05:08:55.631Z,100425.69
2022-08-31T05:11:25.665Z,100427.00
2022-08-31T05:13:54.697Z,100432.88
2022-08-31T05:16:25.273Z,100429.94
2022-08-31T05:18:54.750Z,100430.69
2022-08-31T05:21:28.809Z,100430.25
2022-08-31T05:23:59.395Z,100429.88
2022-08-31T05:26:30.873Z,100434.13
2022-08-31T05:29:01.388Z,100436.66
2022-08-31T05:31:32.466Z,100446.97
2022-08-31T05:34:02.532Z,100452.00
2022-08-31T05:36:56.947Z,100451.59
2022-08-31T05:39:26.645Z,100446.03
2022-08-31T05:41:57.134Z,100449.34
2022-08-31T05:44:28.663Z,100441.97
2022-08-31T05:47:04.022Z,100450.56
2022-08-31T05:49:34.383Z,100440.59
2022-08-31T05:52:06.952Z,100448.19
2022-08-31T05:54:36.885Z,100454.06
2022-08-31T05:57:07.958Z,100452.84
2022-08-31T05:59:37.033Z,100453.19
2022-08-31T06:02:11.433Z,100462.56
2022-08-31T06:04:41.354Z,100456.84
2022-08-31T06:07:12.043Z,100466.03
2022-08-31T06:09:48.302Z,100467.41
2022-08-31T06:12:20.179Z,100464.59
2022-08-31T06:14:53.218Z,100477.56
2022-08-31T06:17:27.086Z,100474.59
2022-08-31T06:19:58.165Z,100476.19
2022-08-31T06:22:29.467Z,100472.31
2022-08-31T06:24:59.847Z,100476.47
2022-08-31T06:27:30.088Z,100475.09
2022-08-31T06:30:02.151Z,100480.75
2022-08-31T06:32:35.976Z,100481.09
2022-08-31T06:35:06.838Z,100480.69
2022-08-31T06:37:58.104Z,100470.56
2022-08-31T06:40:47.374Z,100474.38
2022-08-31T06:43:52.206Z,100482.50
2022-08-31T06:46:38.167Z,100487.19
2022-08-31T06:49:26.148Z,100480.47
2022-08-31T06:51:55.214Z,100495.88
2022-08-31T06:54:30.115Z,100501.00
2022-08-31T06:57:18.086Z,100494.31
2022-08-31T07:00:08.896Z,100498.22
2022-08-31T07:02:57.777Z,100497.84
2022-08-31T07:05:27.163Z,100496.44
2022-08-31T07:07:56.637Z,100505.59
2022-08-31T07:10:26.943Z,100513.16
2022-08-31T07:12:56.274Z,100521.53
2022-08-31T07:15:25.157Z,100518.13
2022-08-31T07:17:54.012Z,100516.53
2022-08-31T07:20:23.104Z,100518.03
2022-08-31T07:22:52.646Z,100510.25
2022-08-31T07:25:35.238Z,100508.00
2022-08-31T07:28:05.559Z,100516.50
2022-08-31T07:30:42.323Z,100513.44
2022-08-31T07:33:15.071Z,100523.31
2022-08-31T07:35:49.362Z,100518.16
2022-08-31T07:38:44.830Z,100515.19
2022-08-31T07:41:29.180Z,100517.50
2022-08-31T07:43:59.763Z,100526.97
2022-08-31T07:46:30.305Z,100524.72
2022-08-31T07:49:00.275Z,100517.88
2022-08-31T07:51:34.956Z,100527.44
2022-08-31T07:54:19.313Z,100523.34
2022-08-31T07:57:08.480Z,100522.44
2022-08-31T07:59:39.600Z,100528.31
2022-08-31T08:02:11.981Z,100519.31
2022-08-31T08:04:44.551Z,100520.91
2022-08-31T08:07:45.568Z,100526.41
2022-08-31T08:10:42.198Z,100532.03
2022-08-31T08:13:33.309Z,100543.81
2022-08-31T08:16:11.197Z,100536.91
2022-08-31T08:18:49.101Z,100542.63
2022-08-31T08:21:22.075Z,100547.94
2022-08-31T08:23:53.303Z,100544.78
2022-08-31T08:26:45.027Z,100539.22
2022-08-31T08:29:26.796Z,100543.81
2022-08-31T08:31:56.165Z,100552.78
2022-08-31T08:34:32.565Z,100550.38
2022-08-31T08:37:03.488Z,100548.44
2022-08-31T08:39:32.205Z,100555.97
2022-08-31T08:42:13.749Z,100548.66
2022-08-31T08:44:45.309Z,100550.97
2022-08-31T08:47:20.937Z,100548.44
2022-08-31T08:49:58.840Z,100556.66
2022-08-31T08:52:31.819Z,100550.31
2022-08-31T08:55:03.988Z,100553.56
2022-08-31T08:57:34.991Z,100554.13
2022-08-31T09:00:19.742Z,100557.63
2022-08-31T09:02:58.645Z,100561.00
2022-08-31T09:06:02.172Z,100553.63
2022-08-31T09:09:08.747Z,100557.34
2022-08-31T09:11:55.398Z,100566.06
2022-08-31T09:14:47.823Z,100560.78
2022-08-31T09:17:35.887Z,100558.31
2022-08-31T09:20:06.042Z,100563.00
2022-08-31T09:22:46.809Z,100560.16
2022-08-31T09:25:19.909Z,100557.47
2022-08-31T09:27:57.603Z,100557.22
2022-08-31T09:30:52.571Z,100552.09
2022-08-31T09:33:24.786Z,100554.41
2022-08-31T09:35:57.025Z,100550.66
2022-08-31T09:38:30.769Z,100553.66
2022-08-31T09:41:02.295Z,100538.44
2022-08-31T09:43:38.785Z,100549.13
2022-08-31T09:46:12.513Z,100541.81
2022-08-31T09:48:51.603Z,100539.69
2022-08-31T09:51:28.487Z,100531.34
2022-08-31T09:54:17.903Z,100545.22
2022-08-31T09:56:55.629Z,100541.63
2022-08-31T09:59:38.574Z,100546.09
2022-08-31T10:02:11.558Z,100538.34
2022-08-31T10:04:53.837Z,100539.81
2022-08-31T10:07:39.119Z,100538.50
2022-08-31T10:10:20.427Z,100528.00
2022-08-31T10:13:02.052Z,100522.44
2022-08-31T10:15:35.661Z,100527.13
2022-08-31T10:18:14.013Z,100518.59
2022-08-31T10:20:48.638Z,100512.88
2022-08-31T10:23:22.305Z,100517.19
2022-08-31T10:25:57.700Z,100507.53
2022-08-31T10:28:36.830Z,100520.22
2022-08-31T10:31:13.798Z,100514.75
2022-08-31T10:34:15.734Z,100511.84
2022-08-31T10:36:50.279Z,100512.75
2022-08-31T10:39:29.781Z,100506.28
2022-08-31T10:42:05.644Z,100496.69
2022-08-31T10:44:42.412Z,100503.59
2022-08-31T10:47:21.610Z,100492.06
2022-08-31T10:50:04.814Z,100499.06
2022-08-31T10:52:41.730Z,100494.50
2022-08-31T10:55:22.182Z,100498.81
2022-08-31T10:57:56.614Z,100497.47
2022-08-31T11:00:45.878Z,100495.25
2022-08-31T11:03:24.121Z,100492.69
2022-08-31T11:06:00.017Z,100495.25
2022-08-31T11:08:50.008Z,100497.47
2022-08-31T11:11:25.228Z,100491.81
2022-08-31T11:14:14.869Z,100487.09
2022-08-31T11:16:57.976Z,100489.78
2022-08-31T11:19:43.397Z,100491.38
2022-08-31T11:22:34.881Z,100489.75
2022-08-31T11:25:39.322Z,100481.69
2022-08-31T11:28:13.888Z,100474.44
2022-08-31T11:30:52.597Z,100487.31
2022-08-31T11:33:28.447Z,100470.47
2022-08-31T11:36:06.713Z,100465.88
2022-08-31T11:38:54.734Z,100469.53
2022-08-31T11:41:44.862Z,100464.84
2022-08-31T11:44:52.347Z,100452.13
2022-08-31T11:47:39.222Z,100465.47
2022-08-31T11:50:55.156Z,100462.00
2022-08-31T11:53:35.749Z,100451.63
2022-08-31T11:56:06.834Z,100458.75
2022-08-31T11:58:39.953Z,100455.63
2022-08-31T12:01:33.942Z,100461.91
2022-08-31T12:04:06.496Z,100449.56
2022-08-31T12:07:02.243Z,100459.38
2022-08-31T12:09:58.390Z,100454.97
2022-08-31T12:12:38.058Z,100451.88
2022-08-31T12:15:18.165Z,100446.03
2022-08-31T12:17:58.919Z,100447.50
2022-08-31T12:20:33.691Z,100441.13
2022-08-31T12:23:35.895Z,100442.66
2022-08-31T12:26:32.017Z,100437.84
2022-08-31T12:29:22.702Z,100425.88
2022-08-31T12:32:13.287Z,100431.91
2022-08-31T12:34:47.816Z,100422.31
2022-08-31T12:37:24.607Z,100426.91
2022-08-31T12:40:10.341Z,100427.75
2022-08-31T12:42:48.770Z,100418.84
2022-08-31T12:45:19.459Z,100414.09
2022-08-31T12:48:02.228Z,100414.38
2022-08-31T12:50:41.396Z,100420.38
2022-08-31T12:53:41.548Z,100415.03
2022-08-31T12:56:15.959Z,100413.63
2022-08-31T12:59:04.102Z,100411.66
2022-08-31T13:01:33.805Z,100422.47
2022-08-31T13:04:05.392Z,100417.34
2022-08-31T13:06:37.213Z,100417.88
2022-08-31T13:09:09.739Z,100411.06
2022-08-31T13:11:44.173Z,100419.16
2022-08-31T13:14:18.467Z,100419.25
2022-08-31T13:16:49.964Z,100420.25
2022-08-31T13:19:26.092Z,100414.47
2022-08-31T13:21:58.647Z,100420.19
2022-08-31T13:24:34.001Z,100412.28
2022-08-31T13:27:12.821Z,100402.22
2022-08-31T13:29:48.406Z,100399.31
2022-08-31T13:32:34.827Z,100402.28
2022-08-31T13:35:11.108Z,100403.56
2022-08-31T13:38:05.646Z,100394.28
2022-08-31T13:40:37.646Z,100391.38
2022-08-31T13:43:10.597Z,100393.34
2022-08-31T13:45:43.337Z,100394.00
2022-08-31T13:48:16.319Z,100385.94
2022-08-31T13:50:52.967Z,100392.75
2022-08-31T13:53:42.190Z,100395.28
2022-08-31T13:56:43.343Z,100394.97
2022-08-31T13:59:29.231Z,100405.34
2022-08-31T14:02:01.297Z,100398.19
2022-08-31T14:05:00.671Z,100396.94
2022-08-31T14:07:36.311Z,100396.00
2022-08-31T14:10:19.435Z,100402.50
2022-08-31T14:12:55.676Z,100410.09
2022-08-31T14:15:36.810Z,100413.16
2022-08-31T14:18:25.643Z,100409.72
2022-08-31T14:21:23.517Z,100406.22
2022-08-31T14:24:01.830Z,100402.66
2022-08-31T14:26:37.021Z,100402.84
2022-08-31T14:29:11.104Z,100399.91
2022-08-31T14:31:47.049Z,100399.84
2022-08-31T14:34:28.312Z,100397.75
2022-08-31T14:37:02.394Z,100393.88
2022-08-31T14:39:34.981Z,100389.56
2022-08-31T14:42:07.374Z,100394.09
2022-08-31T14:44:40.028Z,100385.50
2022-08-31T14:47:10.256Z,100383.31
2022-08-31T14:49:41.290Z,100378.50
2022-08-31T14:52:13.385Z,100374.84
2022-08-31T14:54:44.751Z,100381.88
2022-08-31T14:57:17.327Z,100374.00
2022-08-31T14:59:48.193Z,100372.59
2022-08-31T15:02:23.292Z,100373.44
2022-08-31T15:04:53.394Z,100376.75
2022-08-31T15:07:22.984Z,100371.38
2022-08-31T15:09:53.160Z,100376.81
2022-08-31T15:12:23.214Z,100380.03
2022-08-31T15:15:00.192Z,100374.75
2022-08-31T15:17:36.255Z,100370.78
2022-08-31T15:20:07.454Z,100365.84
2022-08-31T15:22:38.965Z,100367.97
2022-08-31T15:25:12.725Z,100374.41
2022-08-31T15:27:44.531Z,100372.41
2022-08-31T15:30:14.895Z,100371.94
2022-08-31T15:32:45.376Z,100369.91
2022-08-31T15:35:18.096Z,100371.63
2022-08-31T15:37:56.752Z,100368.19
2022-08-31T15:40:38.607Z,100365.31
2022-08-31T15:43:13.036Z,100360.00
2022-08-31T15:45:42.720Z,100358.97
2022-08-31T15:48:29.181Z,100356.97
2022-08-31T15:51:01.582Z,100357.75
2022-08-31T15:53:32.254Z,100359.94
2022-08-31T15:56:06.619Z,100351.75
2022-08-31T15:58:40.319Z,100349.72
2022-08-31T16:01:16.294Z,100353.00
2022-08-31T16:03:51.040Z,100347.44
2022-08-31T16:06:21.790Z,100342.28
2022-08-31T16:08:53.823Z,100347.13
2022-08-31T16:11:27.132Z,100340.47
2022-08-31T16:14:00.845Z,100342.22
2022-08-31T16:16:32.845Z,100346.59
2022-08-31T16:19:04.621Z,100346.38
2022-08-31T16:21:36.375Z,100342.38
2022-08-31T16:24:09.877Z,100357.28
2022-08-31T16:26:43.855Z,100349.88
2022-08-31T16:29:18.966Z,100345.28
2022-08-31T16:31:48.107Z,100350.47
2022-08-31T16:34:17.324Z,100347.56
2022-08-31T16:36:48.591Z,100344.91
2022-08-31T16:39:18.000Z,100346.22
2022-08-31T16:41:48.984Z,100344.53
2022-08-31T16:44:19.966Z,100352.97
2022-08-31T16:46:51.158Z,100344.97
2022-08-31T16:49:33.756Z,100348.41
2022-08-31T16:52:03.762Z,100348.38
2022-08-31T16:54:34.141Z,100357.16
2022-08-31T16:57:04.600Z,100354.59
2022-08-31T16:59:33.724Z,100357.44
2022-08-31T17:02:02.814Z,100360.00
2022-08-31T17:07:20.869Z,100348.31
2022-08-31T17:09:49.808Z,100348.00
2022-08-31T17:12:26.256Z,100343.22
2022-08-31T17:14:56.303Z,100352.94
2022-08-31T17:17:27.769Z,100355.47
2022-08-31T17:19:57.626Z,100351.28
2022-08-31T17:22:33.318Z,100348.75
2022-08-31T17:25:04.915Z,100351.31
2022-08-31T17:27:36.449Z,100346.63
2022-08-31T17:30:07.982Z,100346.31
2022-08-31T17:32:44.957Z,100354.78
2022-08-31T17:35:18.453Z,100354.09
2022-08-31T17:37:48.046Z,100359.03
2022-08-31T17:40:16.950Z,100356.16
2022-08-31T17:42:48.649Z,100363.63
2022-08-31T17:45:19.088Z,100358.94
2022-08-31T17:47:47.798Z,100366.81
2022-08-31T17:50:21.299Z,100366.13
2022-08-31T17:52:49.776Z,100367.09
2022-08-31T17:55:18.870Z,100357.66
2022-08-31T17:57:49.486Z,100365.94
2022-08-31T18:00:18.432Z,100363.91
2022-08-31T18:02:49.339Z,100363.63
2022-08-31T18:05:18.053Z,100363.63
2022-08-31T18:07:50.114Z,100369.75
2022-08-31T18:10:19.261Z,100372.31
2022-08-31T18:12:49.720Z,100376.56
2022-08-31T18:15:20.347Z,100380.06
2022-08-31T18:17:49.319Z,100383.34
2022-08-31T18:20:18.562Z,100385.66
2022-08-31T18:22:52.060Z,100388.22
2022-08-31T18:25:22.170Z,100397.16
2022-08-31T18:27:52.424Z,100395.03
2022-08-31T18:30:23.063Z,100399.91
2022-08-31T18:32:52.816Z,100400.22
2022-08-31T18:35:22.118Z,100403.50
2022-08-31T18:37:51.321Z,100403.19
2022-08-31T18:40:37.924Z,100403.94
2022-08-31T18:43:25.503Z,100403.31
2022-08-31T18:45:54.370Z,100412.22
2022-08-31T18:48:26.257Z,100408.19
2022-08-31T18:50:57.048Z,100411.28
2022-08-31T18:53:30.431Z,100412.63
2022-08-31T18:56:06.878Z,100411.38
2022-08-31T18:58:38.291Z,100408.38
2022-08-31T19:01:11.533Z,100407.22
2022-08-31T19:03:41.217Z,100404.31
2022-08-31T19:06:16.872Z,100400.38
2022-08-31T19:08:45.988Z,100402.59
2022-08-31T19:11:15.055Z,100402.16
2022-08-31T19:13:46.679Z,100397.25
2022-08-31T19:16:19.301Z,100395.97
2022-08-31T19:18:48.839Z,100395.19
2022-08-31T19:21:20.140Z,100399.97
2022-08-31T19:23:49.887Z,100394.13
2022-08-31T19:26:24.084Z,100393.75
2022-08-31T19:28:54.961Z,100395.31
2022-08-31T19:31:25.901Z,100405.69
2022-08-31T19:33:57.090Z,100402.88
2022-08-31T19:36:27.469Z,100400.16
2022-08-31T19:38:57.726Z,100397.69
2022-08-31T19:41:29.231Z,100387.41
2022-08-31T19:44:08.120Z,100396.50
2022-08-31T19:46:38.989Z,100397.63
2022-08-31T19:49:09.878Z,100394.59
2022-08-31T19:51:40.194Z,100388.56
2022-08-31T19:54:11.821Z,100391.13
2022-08-31T19:56:41.605Z,100396.50
2022-08-31T19:59:13.495Z,100394.97
2022-08-31T20:01:44.589Z,100392.59
2022-08-31T20:04:20.519Z,100394.41
2022-08-31T20:06:52.596Z,100385.97
2022-08-31T20:09:22.971Z,100394.28
2022-08-31T20:11:53.486Z,100401.00
2022-08-31T20:14:24.821Z,100398.25
2022-08-31T20:16:55.045Z,100393.41
2022-08-31T20:19:26.079Z,100398.28
2022-08-31T20:22:06.951Z,100392.41
2022-08-31T20:24:39.437Z,100392.59
2022-08-31T20:27:16.644Z,100390.16
2022-08-31T20:29:49.474Z,100386.06
2022-08-31T20:32:18.613Z,100400.38
2022-08-31T20:34:49.914Z,100399.97
2022-08-31T20:37:19.005Z,100402.44
2022-08-31T20:39:48.075Z,100403.97
2022-08-31T20:42:17.416Z,100409.97
2022-08-31T20:44:48.953Z,100401.00
2022-08-31T20:47:36.405Z,100415.63
2022-08-31T20:50:07.481Z,100409.28
2022-08-31T20:52:36.594Z,100417.84
2022-08-31T20:55:08.276Z,100414.22
2022-08-31T20:57:41.020Z,100416.50
2022-08-31T21:00:11.581Z,100413.50
2022-08-31T21:02:41.610Z,100399.88
2022-08-31T21:05:37.843Z,100409.28
2022-08-31T21:08:02.895Z,100405.63
2022-08-31T21:10:37.586Z,100413.91
2022-08-31T21:13:11.838Z,100405.59
2022-08-31T21:15:47.171Z,100406.53
2022-08-31T21:18:18.240Z,100414.19
2022-08-31T21:20:46.997Z,100414.13
2022-08-31T21:23:15.795Z,100408.84
2022-08-31T21:25:45.964Z,100408.16
2022-08-31T21:28:17.609Z,100407.63
2022-08-31T21:30:50.443Z,100412.22
2022-08-31T21:33:21.278Z,100413.44
2022-08-31T21:35:50.280Z,100412.81
2022-08-31T21:38:19.208Z,100415.75
2022-08-31T21:40:49.558Z,100410.81
2022-08-31T21:43:18.876Z,100413.44
2022-08-31T21:45:48.318Z,100410.94
2022-08-31T21:48:26.072Z,100410.81
2022-08-31T21:50:55.222Z,100413.13
2022-08-31T21:53:25.862Z,100408.50
2022-08-31T21:55:55.055Z,100409.28
2022-08-31T21:58:24.037Z,100413.31
2022-08-31T22:00:52.733Z,100418.50
2022-08-31T22:03:22.797Z,100419.25
2022-08-31T22:05:53.474Z,100417.50
2022-08-31T22:08:26.274Z,100417.38
2022-08-31T22:10:55.665Z,100419.09
2022-08-31T22:13:24.839Z,100414.00
2022-08-31T22:15:56.111Z,100414.31
2022-08-31T22:18:59.803Z,100417.19
2022-08-31T22:21:18.237Z,100419.31
2022-08-31T22:23:48.066Z,100417.06
2022-08-31T22:26:17.397Z,100422.59
2022-08-31T22:28:46.919Z,100422.84
2022-08-31T22:31:20.287Z,100424.69
2022-08-31T22:33:51.574Z,100421.16
2022-08-31T22:36:31.720Z,100425.47
2022-08-31T22:39:03.927Z,100418.34
2022-08-31T22:41:33.150Z,100418.22
2022-08-31T22:44:03.017Z,100421.47
2022-08-31T22:46:31.625Z,100415.91
2022-08-31T22:49:01.153Z,100416.69
2022-08-31T22:51:32.551Z,100419.09
2022-08-31T22:54:01.541Z,100419.81
2022-08-31T22:56:32.687Z,100416.19
2022-08-31T22:59:04.539Z,100421.34
2022-08-31T23:01:36.300Z,100418.56
2022-08-31T23:04:08.071Z,100415.00
2022-08-31T23:06:39.687Z,100412.53
2022-08-31T23:09:11.836Z,100413.44
2022-08-31T23:11:41.022Z,100418.72
2022-08-31T23:14:10.884Z,100417.88
2022-08-31T23:16:42.470Z,100413.63
2022-08-31T23:19:14.165Z,100412.81
2022-08-31T23:21:52.755Z,100408.56
2022-08-31T23:24:28.134Z,100408.56
2022-08-31T23:27:03.938Z,100407.78
2022-08-31T23:29:40.242Z,100409.56
2022-08-31T23:32:11.316Z,100411.44
2022-08-31T23:34:40.194Z,100415.91
2022-08-31T23:37:12.299Z,100419.59
2022-08-31T23:39:44.795Z,100414.66
2022-08-31T23:42:16.579Z,100412.19
2022-08-31T23:44:46.722Z,100408.13
2022-08-31T23:47:17.976Z,100404.06
2022-08-31T23:49:49.873Z,100406.16
2022-08-31T23:52:21.713Z,100405.59
2022-08-31T23:54:53.610Z,100410.28
2022-08-31T23:57:31.482Z,100404.47
